createdAt,value
2022-09-29T00:01:06.670Z,5.07
2022-09-29T00:03:53.236Z,7.00
2022-09-29T00:06:41.428Z,4.77
2022-09-29T00:09:28.255Z,6.07
2022-09-29T00:12:15.047Z,4.17
2022-09-29T00:15:01.801Z,4.47
2022-09-29T00:18:12.230Z,6.80
2022-09-29T00:21:03.161Z,5.13
2022-09-29T00:23:51.849Z,4.87
2022-09-29T00:26:38.729Z,5.50
2022-09-29T00:29:25.466Z,6.47
2022-09-29T00:32:12.769Z,6.03
2022-09-29T00:34:59.759Z,7.53
2022-09-29T00:37:46.825Z,6.10
2022-09-29T00:40:34.994Z,5.57
2022-09-29T00:43:24.191Z,5.53
2022-09-29T00:46:10.939Z,4.97
2022-09-29T00:49:00.886Z,8.23
2022-09-29T00:51:52.599Z,6.27
2022-09-29T00:54:44.131Z,7.93
2022-09-29T00:57:37.929Z,5.70
2022-09-29T01:00:25.369Z,4.97
2022-09-29T01:03:17.278Z,5.90
2022-09-29T01:06:12.984Z,5.77
2022-09-29T01:09:02.555Z,6.63
2022-09-29T01:11:49.397Z,7.97
2022-09-29T01:14:39.407Z,7.53
2022-09-29T01:17:26.714Z,5.70
2022-09-29T01:20:16.923Z,6.33
2022-09-29T01:23:31.169Z,5.80
2022-09-29T01:26:50.985Z,5.17
2022-09-29T01:30:06.225Z,4.70
2022-09-29T01:33:22.620Z,5.53
2022-09-29T01:36:16.464Z,6.20
2022-09-29T01:39:11.601Z,4.33
2022-09-29T01:42:03.697Z,4.80
2022-09-29T01:44:53.392Z,4.83
2022-09-29T01:47:44.009Z,6.30
2022-09-29T01:50:39.850Z,4.67
2022-09-29T01:53:31.858Z,3.57
2022-09-29T01:56:25.340Z,4.03
2022-09-29T01:59:18.158Z,3.57
2022-09-29T02:02:09.685Z,6.23
2022-09-29T02:05:00.839Z,8.20
2022-09-29T02:07:50.846Z,7.33
2022-09-29T02:10:42.809Z,5.73
2022-09-29T02:13:32.769Z,6.87
2022-09-29T02:16:23.184Z,4.30
2022-09-29T02:19:16.604Z,2.17
2022-09-29T02:22:03.415Z,2.53
2022-09-29T02:24:56.544Z,3.03
2022-09-29T02:27:43.648Z,3.87
2022-09-29T02:30:30.416Z,4.53
2022-09-29T02:33:22.915Z,5.07
2022-09-29T02:36:20.600Z,6.27
2022-09-29T02:39:16.120Z,5.90
2022-09-29T02:42:13.630Z,8.87
2022-09-29T02:45:17.816Z,7.00
2022-09-29T02:48:26.700Z,7.20
2022-09-29T02:51:20.580Z,5.73
2022-09-29T02:54:20.107Z,4.90
2022-09-29T02:57:18.022Z,5.47
2022-09-29T03:00:09.559Z,5.27
2022-09-29T03:02:56.295Z,5.43
2022-09-29T03:05:43.145Z,4.13
2022-09-29T03:08:30.006Z,4.17
2022-09-29T03:11:17.200Z,4.80
2022-09-29T03:14:06.620Z,4.20
2022-09-29T03:16:53.312Z,5.90
2022-09-29T03:19:40.242Z,4.47
2022-09-29T03:22:27.540Z,4.07
2022-09-29T03:25:15.197Z,4.57
2022-09-29T03:28:02.784Z,4.70
2022-09-29T03:30:51.018Z,4.93
2022-09-29T03:33:38.569Z,3.90
2022-09-29T03:36:25.280Z,5.23
2022-09-29T03:39:11.916Z,3.70
2022-09-29T03:41:58.750Z,4.33
2022-09-29T03:44:45.730Z,4.67
2022-09-29T03:47:33.830Z,4.77
2022-09-29T03:50:20.715Z,5.33
2022-09-29T03:53:07.558Z,3.40
2022-09-29T03:55:54.250Z,4.77
2022-09-29T03:58:41.021Z,5.63
2022-09-29T04:01:28.099Z,6.50
2022-09-29T04:04:16.025Z,11.97
2022-09-29T04:07:02.864Z,5.60
2022-09-29T04:09:49.856Z,6.50
2022-09-29T04:12:36.621Z,6.50
2022-09-29T04:15:23.325Z,5.00
2022-09-29T04:18:10.669Z,6.43
2022-09-29T04:21:00.522Z,5.00
2022-09-29T04:23:47.045Z,5.73
2022-09-29T04:26:33.915Z,6.33
2022-09-29T04:29:20.741Z,5.20
2022-09-29T04:32:08.671Z,4.23
2022-09-29T04:34:55.430Z,5.43
2022-09-29T04:37:43.424Z,5.93
2022-09-29T04:40:29.912Z,8.10
2022-09-29T04:43:17.787Z,11.53
2022-09-29T04:46:06.470Z,5.70
2022-09-29T04:48:53.279Z,5.07
2022-09-29T04:51:40.346Z,4.97
2022-09-29T04:54:36.827Z,7.17
2022-09-29T04:57:24.649Z,4.40
2022-09-29T05:00:13.452Z,5.07
2022-09-29T05:03:00.917Z,5.30
2022-09-29T05:05:47.746Z,7.73
2022-09-29T05:08:34.334Z,5.20
2022-09-29T05:11:22.459Z,6.90
2022-09-29T05:14:09.473Z,7.20
2022-09-29T05:16:56.169Z,6.27
2022-09-29T05:19:43.078Z,8.67
2022-09-29T05:22:30.261Z,11.23
2022-09-29T05:25:34.177Z,6.20
2022-09-29T05:28:25.681Z,5.73
2022-09-29T05:31:13.189Z,7.03
2022-09-29T05:34:02.399Z,7.20
2022-09-29T05:36:49.418Z,10.03
2022-09-29T05:39:37.311Z,7.97
2022-09-29T05:42:24.363Z,8.00
2022-09-29T05:45:12.751Z,7.10
2022-09-29T05:47:59.716Z,6.67
2022-09-29T05:50:46.945Z,9.93
2022-09-29T05:53:34.069Z,8.90
2022-09-29T05:56:23.818Z,8.13
2022-09-29T05:59:11.097Z,9.67
2022-09-29T06:01:59.392Z,8.30
2022-09-29T06:04:48.701Z,8.03
2022-09-29T06:07:35.573Z,8.37
2022-09-29T06:10:22.516Z,7.40
2022-09-29T06:13:09.550Z,6.37
2022-09-29T06:15:56.719Z,10.20
2022-09-29T06:18:45.283Z,9.57
2022-09-29T06:21:34.004Z,5.80
2022-09-29T06:24:20.606Z,8.30
2022-09-29T06:27:07.547Z,9.77
2022-09-29T06:29:54.718Z,6.00
2022-09-29T06:32:42.115Z,7.50
2022-09-29T06:35:47.684Z,5.70
2022-09-29T06:38:34.789Z,7.23
2022-09-29T06:41:21.754Z,5.67
2022-09-29T06:44:09.087Z,8.20
2022-09-29T06:46:56.708Z,6.73
2022-09-29T06:49:46.488Z,7.17
2022-09-29T06:52:55.318Z,7.13
2022-09-29T06:55:54.023Z,8.53
2022-09-29T06:58:40.862Z,11.20
2022-09-29T07:01:28.046Z,10.27
2022-09-29T07:04:15.806Z,8.53
2022-09-29T07:07:02.982Z,8.23
2022-09-29T07:09:51.072Z,6.33
2022-09-29T07:12:37.847Z,5.97
2022-09-29T07:15:31.476Z,5.90
2022-09-29T07:18:18.090Z,4.47
2022-09-29T07:21:05.489Z,3.67
2022-09-29T07:23:52.759Z,5.87
2022-09-29T07:26:40.833Z,5.03
2022-09-29T07:29:27.638Z,6.13
2022-09-29T07:32:26.052Z,4.40
2022-09-29T07:35:14.956Z,4.33
2022-09-29T07:38:01.997Z,5.57
2022-09-29T07:40:49.279Z,5.07
2022-09-29T07:43:37.773Z,5.47
2022-09-29T07:46:24.425Z,4.83
2022-09-29T07:49:11.330Z,3.97
2022-09-29T07:51:57.936Z,6.77
2022-09-29T07:54:45.022Z,6.27
2022-09-29T07:57:32.616Z,4.57
2022-09-29T08:00:21.244Z,3.07
2022-09-29T08:03:08.676Z,4.50
2022-09-29T08:05:56.186Z,3.10
2022-09-29T08:08:55.648Z,3.57
2022-09-29T08:11:47.283Z,3.50
2022-09-29T08:14:35.084Z,3.83
2022-09-29T08:17:23.403Z,3.30
2022-09-29T08:20:10.739Z,2.37
2022-09-29T08:22:57.451Z,2.80
2022-09-29T08:25:52.476Z,3.13
2022-09-29T08:28:45.758Z,2.43
2022-09-29T08:31:32.722Z,2.67
2022-09-29T08:34:21.180Z,5.63
2022-09-29T08:37:07.981Z,3.03
2022-09-29T08:39:55.059Z,4.67
2022-09-29T08:42:52.983Z,2.13
2022-09-29T08:45:57.507Z,5.10
2022-09-29T08:48:56.274Z,2.17
2022-09-29T08:51:51.719Z,4.53
2022-09-29T08:54:48.166Z,3.00
2022-09-29T08:57:36.905Z,3.87
2022-09-29T09:00:31.625Z,2.97
2022-09-29T09:03:35.840Z,1.97
2022-09-29T09:06:29.104Z,2.83
2022-09-29T09:09:43.088Z,3.20
2022-09-29T09:12:53.259Z,1.80
2022-09-29T09:16:03.460Z,3.57
2022-09-29T09:19:14.900Z,5.20
2022-09-29T09:22:14.568Z,4.27
2022-09-29T09:25:14.531Z,3.87
2022-09-29T09:28:06.870Z,4.27
2022-09-29T09:30:59.587Z,3.50
2022-09-29T09:34:03.407Z,3.10
2022-09-29T09:37:06.536Z,5.77
2022-09-29T09:40:00.556Z,1.63
2022-09-29T09:42:53.669Z,1.33
2022-09-29T09:45:48.104Z,2.93
2022-09-29T09:48:39.629Z,2.17
2022-09-29T09:51:37.267Z,1.73
2022-09-29T09:54:32.502Z,3.03
2022-09-29T09:57:34.851Z,2.73
2022-09-29T10:00:25.273Z,3.67
2022-09-29T10:03:14.471Z,2.50
2022-09-29T10:06:01.413Z,1.90
2022-09-29T10:08:48.047Z,4.23
2022-09-29T10:11:35.214Z,1.10
2022-09-29T10:14:26.095Z,1.93
2022-09-29T10:17:15.690Z,4.30
2022-09-29T10:20:05.756Z,1.53
2022-09-29T10:22:52.360Z,1.27
2022-09-29T10:25:39.240Z,1.00
2022-09-29T10:28:27.643Z,1.27
2022-09-29T10:31:24.155Z,1.53
2022-09-29T10:34:18.277Z,1.40
2022-09-29T10:37:07.203Z,1.00
2022-09-29T10:40:05.356Z,1.37
2022-09-29T10:42:53.494Z,1.30
2022-09-29T10:45:50.207Z,1.97
2022-09-29T10:48:37.661Z,2.33
2022-09-29T10:51:26.522Z,1.23
2022-09-29T10:54:17.871Z,2.03
2022-09-29T10:57:14.470Z,1.20
2022-09-29T11:00:02.321Z,2.33
2022-09-29T11:02:49.368Z,0.60
2022-09-29T11:05:38.018Z,1.53
2022-09-29T11:08:27.889Z,1.47
2022-09-29T11:11:23.018Z,0.83
2022-09-29T11:14:26.154Z,1.43
2022-09-29T11:17:24.611Z,0.70
2022-09-29T11:20:16.446Z,3.07
2022-09-29T11:23:18.439Z,2.87
2022-09-29T11:26:21.725Z,1.73
2022-09-29T11:29:20.536Z,1.67
2022-09-29T11:32:29.897Z,3.63
2022-09-29T11:35:38.866Z,1.47
2022-09-29T11:38:50.089Z,3.77
2022-09-29T11:41:55.956Z,1.97
2022-09-29T11:45:15.284Z,1.23
2022-09-29T11:48:35.517Z,2.07
2022-09-29T11:51:31.467Z,1.63
2022-09-29T11:54:34.140Z,1.43
2022-09-29T11:57:32.344Z,0.80
2022-09-29T12:00:21.518Z,1.13
2022-09-29T12:03:46.879Z,0.63
2022-09-29T12:06:57.047Z,2.00
2022-09-29T12:10:16.997Z,0.87
2022-09-29T12:13:12.238Z,1.23
2022-09-29T12:16:04.142Z,1.07
2022-09-29T12:18:57.874Z,3.47
2022-09-29T12:21:49.330Z,2.33
2022-09-29T12:24:39.809Z,23.00
2022-09-29T12:27:30.701Z,3.20
2022-09-29T12:30:22.356Z,3.90
2022-09-29T12:33:16.912Z,3.87
2022-09-29T12:36:31.113Z,1.57
2022-09-29T12:39:33.629Z,0.80
2022-09-29T12:42:37.256Z,2.10
2022-09-29T12:45:34.853Z,5.83
2022-09-29T12:48:45.805Z,2.90
2022-09-29T12:51:38.189Z,1.73
2022-09-29T12:54:28.654Z,0.70
2022-09-29T12:57:17.511Z,0.57
2022-09-29T13:00:08.996Z,2.63
2022-09-29T13:03:33.138Z,1.50
2022-09-29T13:06:45.244Z,2.17
2022-09-29T13:09:53.074Z,0.50
2022-09-29T13:13:03.485Z,1.97
2022-09-29T13:16:04.318Z,2.27
2022-09-29T13:19:34.148Z,2.87
2022-09-29T13:22:43.574Z,3.30
2022-09-29T13:25:34.799Z,2.30
2022-09-29T13:28:30.622Z,2.50
2022-09-29T13:31:20.962Z,1.83
2022-09-29T13:34:23.400Z,1.87
2022-09-29T13:37:16.910Z,1.00
2022-09-29T13:40:11.248Z,0.90
2022-09-29T13:43:00.096Z,0.83
2022-09-29T13:45:47.133Z,1.60
2022-09-29T13:48:39.406Z,1.27
2022-09-29T13:51:43.664Z,1.63
2022-09-29T13:54:40.190Z,1.13
2022-09-29T13:57:28.451Z,1.27
2022-09-29T14:00:19.934Z,0.50
2022-09-29T14:03:24.319Z,3.13
2022-09-29T14:06:39.817Z,1.33
2022-09-29T14:09:31.912Z,1.20
2022-09-29T14:12:22.909Z,1.80
2022-09-29T14:15:16.333Z,2.37
2022-09-29T14:18:08.365Z,1.27
2022-09-29T14:21:03.366Z,1.50
2022-09-29T14:23:52.981Z,1.40
2022-09-29T14:26:48.463Z,3.70
2022-09-29T14:29:42.789Z,1.27
2022-09-29T14:32:42.089Z,1.83
2022-09-29T14:35:33.666Z,1.20
2022-09-29T14:38:23.187Z,1.63
2022-09-29T14:41:25.232Z,1.30
2022-09-29T14:44:17.614Z,1.27
2022-09-29T14:47:48.508Z,2.90
2022-09-29T14:51:05.508Z,1.87
2022-09-29T14:54:08.321Z,1.67
2022-09-29T14:57:05.227Z,0.70
2022-09-29T15:00:07.261Z,0.47
2022-09-29T15:03:04.947Z,0.73
2022-09-29T15:06:13.678Z,1.27
2022-09-29T15:09:02.290Z,0.57
2022-09-29T15:11:52.797Z,1.17
2022-09-29T15:14:41.823Z,1.90
2022-09-29T15:17:46.475Z,1.20
2022-09-29T15:20:35.288Z,0.93
2022-09-29T15:23:47.349Z,0.57
2022-09-29T15:26:36.954Z,0.80
2022-09-29T15:29:25.364Z,0.73
2022-09-29T15:32:22.611Z,0.60
2022-09-29T15:35:15.937Z,1.93
2022-09-29T15:38:20.495Z,2.17
2022-09-29T15:41:17.800Z,2.80
2022-09-29T15:44:13.753Z,2.23
2022-09-29T15:47:01.203Z,1.00
2022-09-29T15:49:52.581Z,1.07
2022-09-29T15:52:40.911Z,1.23
2022-09-29T15:55:28.139Z,0.83
2022-09-29T15:58:37.934Z,0.50
2022-09-29T16:01:25.133Z,2.03
2022-09-29T16:04:13.215Z,1.90
2022-09-29T16:07:00.674Z,1.93
2022-09-29T16:09:49.472Z,0.43
2022-09-29T16:12:40.481Z,1.77
2022-09-29T16:15:32.167Z,2.80
2022-09-29T16:18:24.236Z,4.30
2022-09-29T16:21:13.459Z,3.83
2022-09-29T16:24:06.773Z,1.50
2022-09-29T16:26:57.010Z,1.80
2022-09-29T16:29:44.119Z,2.03
2022-09-29T16:32:42.477Z,2.10
2022-09-29T16:35:50.810Z,1.40
2022-09-29T16:38:41.007Z,0.60
2022-09-29T16:41:34.382Z,0.60
2022-09-29T16:44:26.800Z,1.27
2022-09-29T16:47:17.680Z,1.43
2022-09-29T16:50:10.165Z,1.57
2022-09-29T16:52:58.374Z,0.93
2022-09-29T16:55:57.869Z,0.90
2022-09-29T16:58:45.112Z,1.73
2022-09-29T17:01:33.477Z,2.33
2022-09-29T17:04:21.189Z,5.50
2022-09-29T17:07:08.540Z,4.20
2022-09-29T17:09:58.082Z,3.37
2022-09-29T17:12:45.126Z,2.33
2022-09-29T17:15:32.212Z,4.77
2022-09-29T17:18:22.089Z,4.73
2022-09-29T17:21:12.025Z,4.80
2022-09-29T17:23:58.517Z,4.20
2022-09-29T17:27:04.791Z,7.43
2022-09-29T17:29:51.455Z,3.60
2022-09-29T17:32:44.363Z,12.13
2022-09-29T17:35:36.594Z,12.73
2022-09-29T17:38:24.239Z,20.80
2022-09-29T17:41:16.499Z,10.23
2022-09-29T17:44:10.381Z,13.50
2022-09-29T17:47:05.442Z,15.33
2022-09-29T17:50:18.622Z,11.20
2022-09-29T17:53:06.871Z,4.53
2022-09-29T17:55:55.530Z,10.97
2022-09-29T17:58:42.362Z,8.30
2022-09-29T18:01:31.342Z,10.37
2022-09-29T18:04:18.175Z,9.27
2022-09-29T18:07:05.267Z,4.47
2022-09-29T18:09:53.364Z,3.93
2022-09-29T18:12:40.218Z,9.13
2022-09-29T18:15:27.912Z,3.80
2022-09-29T18:18:18.165Z,3.27
2022-09-29T18:21:06.237Z,1.73
2022-09-29T18:23:53.163Z,1.63
2022-09-29T18:26:45.010Z,4.00
2022-09-29T18:29:32.611Z,3.97
2022-09-29T18:32:20.727Z,1.87
2022-09-29T18:35:13.063Z,1.40
2022-09-29T18:38:00.228Z,1.67
2022-09-29T18:40:47.284Z,1.70
2022-09-29T18:43:35.634Z,1.63
2022-09-29T18:46:22.924Z,2.30
2022-09-29T18:49:09.825Z,1.87
2022-09-29T18:51:56.741Z,2.37
2022-09-29T18:54:43.504Z,2.03
2022-09-29T18:57:32.291Z,1.73
2022-09-29T19:00:22.826Z,2.40
2022-09-29T19:03:09.463Z,6.23
2022-09-29T19:05:57.782Z,11.47
2022-09-29T19:08:46.757Z,5.17
2022-09-29T19:11:33.736Z,7.73
2022-09-29T19:14:23.309Z,1.30
2022-09-29T19:17:12.133Z,2.20
2022-09-29T19:20:00.243Z,2.00
2022-09-29T19:22:47.439Z,3.80
2022-09-29T19:25:37.004Z,3.57
2022-09-29T19:28:27.019Z,2.43
2022-09-29T19:31:16.475Z,3.20
2022-09-29T19:34:04.851Z,1.47
2022-09-29T19:36:51.751Z,1.37
2022-09-29T19:39:38.766Z,1.80
2022-09-29T19:42:26.187Z,2.20
2022-09-29T19:45:13.429Z,2.83
2022-09-29T19:48:00.518Z,2.50
2022-09-29T19:51:07.072Z,5.37
2022-09-29T19:54:10.742Z,6.53
2022-09-29T19:57:00.159Z,3.07
2022-09-29T19:59:46.863Z,2.60
2022-09-29T20:02:33.931Z,2.97
2022-09-29T20:05:20.794Z,3.33
2022-09-29T20:08:09.638Z,4.17
2022-09-29T20:10:56.582Z,5.13
2022-09-29T20:13:43.914Z,4.03
2022-09-29T20:16:33.473Z,6.63
2022-09-29T20:19:22.285Z,6.37
2022-09-29T20:22:09.475Z,4.40
2022-09-29T20:24:57.866Z,5.50
2022-09-29T20:27:44.968Z,4.77
2022-09-29T20:30:31.908Z,8.63
2022-09-29T20:33:18.760Z,6.67
2022-09-29T20:36:06.222Z,4.20
2022-09-29T20:38:53.166Z,4.17
2022-09-29T20:41:43.690Z,4.40
2022-09-29T20:44:30.500Z,4.23
2022-09-29T20:47:18.809Z,5.70
2022-09-29T20:50:06.224Z,4.73
2022-09-29T20:52:56.613Z,4.57
2022-09-29T20:55:43.279Z,4.33
2022-09-29T20:58:32.000Z,6.17
2022-09-29T21:01:21.408Z,4.40
2022-09-29T21:04:10.862Z,7.67
2022-09-29T21:06:58.788Z,8.47
2022-09-29T21:09:48.886Z,5.63
2022-09-29T21:12:36.026Z,5.87
2022-09-29T21:15:26.939Z,7.47
2022-09-29T21:18:14.563Z,5.53
2022-09-29T21:21:02.442Z,5.57
2022-09-29T21:23:50.551Z,6.00
2022-09-29T21:26:39.608Z,7.07
2022-09-29T21:29:26.709Z,5.87
2022-09-29T21:32:17.525Z,6.13
2022-09-29T21:35:04.839Z,6.47
2022-09-29T21:37:51.291Z,4.00
2022-09-29T21:40:38.424Z,6.00
2022-09-29T21:43:25.630Z,6.13
2022-09-29T21:46:13.968Z,5.83
2022-09-29T21:49:03.457Z,3.27
2022-09-29T21:51:52.072Z,4.40
2022-09-29T21:54:38.837Z,12.97
2022-09-29T21:57:25.681Z,3.23
2022-09-29T22:00:13.435Z,4.50
2022-09-29T22:03:00.322Z,4.17
2022-09-29T22:05:48.510Z,6.07
2022-09-29T22:08:35.393Z,6.50
2022-09-29T22:11:24.296Z,3.93
2022-09-29T22:14:14.349Z,5.27
2022-09-29T22:17:01.351Z,5.07
2022-09-29T22:19:47.946Z,4.80
2022-09-29T22:22:35.960Z,4.90
2022-09-29T22:25:22.720Z,4.80
2022-09-29T22:28:09.542Z,6.67
2022-09-29T22:30:57.216Z,5.50
2022-09-29T22:33:46.251Z,6.07
2022-09-29T22:36:34.967Z,6.20
2022-09-29T22:39:23.186Z,6.23
2022-09-29T22:42:10.295Z,4.37
2022-09-29T22:44:56.959Z,7.33
2022-09-29T22:47:44.021Z,4.60
2022-09-29T22:50:32.609Z,5.27
2022-09-29T22:53:19.354Z,5.77
2022-09-29T22:56:12.968Z,4.90
2022-09-29T22:59:02.039Z,8.83
2022-09-29T23:01:49.609Z,10.10
2022-09-29T23:04:36.434Z,7.37
2022-09-29T23:07:23.171Z,6.03
2022-09-29T23:10:11.420Z,7.77
2022-09-29T23:12:59.484Z,9.00
2022-09-29T23:15:46.578Z,8.17
2022-09-29T23:18:34.136Z,8.93
2022-09-29T23:21:20.835Z,9.17
2022-09-29T23:24:10.930Z,20.30
2022-09-29T23:26:59.806Z,19.43
2022-09-29T23:29:48.496Z,8.07
2022-09-29T23:32:35.370Z,8.07
2022-09-29T23:35:22.199Z,6.97
2022-09-29T23:38:26.390Z,9.83
2022-09-29T23:41:13.988Z,6.00
2022-09-29T23:44:04.374Z,4.97
2022-09-29T23:46:53.369Z,6.57
2022-09-29T23:49:40.245Z,8.00
2022-09-29T23:52:27.211Z,5.63
2022-09-29T23:55:13.949Z,3.93
2022-09-29T23:58:00.957Z,5.40
